createdAt,value
2018-10-12T00:00:26.270Z,79.43
2018-10-12T00:02:53.578Z,78.65
2018-10-12T00:05:20.930Z,79.44
2018-10-12T00:07:48.163Z,79.81
2018-10-12T00:10:15.307Z,79.76
2018-10-12T00:12:42.613Z,79.19
2018-10-12T00:15:10.193Z,78.91
2018-10-12T00:17:37.659Z,79.34
2018-10-12T00:20:05.848Z,78.80
2018-10-12T00:22:33.112Z,79.31
2018-10-12T00:25:00.273Z,78.93
2018-10-12T00:27:27.459Z,79.41
2018-10-12T00:29:54.693Z,78.83
2018-10-12T00:32:21.844Z,78.57
2018-10-12T00:34:49.072Z,78.74
2018-10-12T00:37:16.300Z,78.66
2018-10-12T00:39:43.471Z,78.77
2018-10-12T00:42:10.662Z,79.02
2018-10-12T00:44:37.812Z,79.52
2018-10-12T00:47:05.182Z,78.71
2018-10-12T00:49:32.402Z,79.21
2018-10-12T00:51:59.534Z,79.96
2018-10-12T00:54:26.790Z,78.98
2018-10-12T00:56:54.112Z,78.96
2018-10-12T00:59:21.246Z,79.07
2018-10-12T01:01:48.421Z,78.60
2018-10-12T01:04:15.625Z,79.07
2018-10-12T01:06:42.929Z,78.90
2018-10-12T01:09:10.130Z,79.62
2018-10-12T01:11:37.330Z,78.85
2018-10-12T01:14:04.559Z,80.22
2018-10-12T01:16:31.930Z,79.58
2018-10-12T01:18:59.208Z,79.78
2018-10-12T01:21:26.361Z,79.22
2018-10-12T01:23:53.665Z,78.67
2018-10-12T01:26:20.810Z,79.53
2018-10-12T01:28:49.933Z,78.53
2018-10-12T01:31:17.058Z,79.02
2018-10-12T01:33:44.354Z,78.69
2018-10-12T01:36:11.714Z,78.00
2018-10-12T01:38:38.911Z,78.48
2018-10-12T01:41:06.144Z,78.20
2018-10-12T01:43:33.314Z,78.22
2018-10-12T01:46:00.493Z,78.98
2018-10-12T01:48:27.665Z,78.59
2018-10-12T01:50:54.839Z,79.08
2018-10-12T01:53:22.002Z,79.12
2018-10-12T01:55:52.322Z,79.10
2018-10-12T01:58:19.611Z,79.66
2018-10-12T02:00:46.780Z,79.08
2018-10-12T02:03:14.001Z,78.95
2018-10-12T02:05:41.176Z,79.28
2018-10-12T02:08:08.386Z,79.19
2018-10-12T02:10:35.699Z,78.72
2018-10-12T02:13:02.877Z,78.51
2018-10-12T02:15:30.062Z,78.75
2018-10-12T02:17:57.260Z,79.13
2018-10-12T02:20:24.485Z,78.15
2018-10-12T02:22:51.810Z,79.04
2018-10-12T02:25:19.004Z,78.47
2018-10-12T02:27:46.185Z,78.61
2018-10-12T02:30:13.359Z,78.31
2018-10-12T02:32:40.522Z,78.66
2018-10-12T02:35:07.650Z,78.34
2018-10-12T02:37:34.887Z,77.99
2018-10-12T02:40:02.015Z,78.24
2018-10-12T02:42:29.326Z,77.89
2018-10-12T02:44:56.608Z,78.36
2018-10-12T02:47:23.786Z,78.22
2018-10-12T02:49:50.914Z,78.72
2018-10-12T02:52:18.129Z,78.87
2018-10-12T02:54:45.330Z,78.55
2018-10-12T02:57:12.530Z,78.05
2018-10-12T02:59:39.989Z,78.20
2018-10-12T03:02:07.154Z,78.37
2018-10-12T03:04:34.366Z,78.70
2018-10-12T03:07:01.554Z,78.13
2018-10-12T03:09:28.760Z,78.83
2018-10-12T03:11:56.627Z,79.27
2018-10-12T03:14:23.880Z,78.80
2018-10-12T03:16:51.027Z,78.58
2018-10-12T03:19:18.354Z,78.21
2018-10-12T03:21:45.529Z,78.33
2018-10-12T03:24:12.754Z,78.10
2018-10-12T03:26:39.909Z,78.59
2018-10-12T03:29:07.193Z,78.67
2018-10-12T03:31:34.385Z,78.93
2018-10-12T03:34:01.597Z,79.14
2018-10-12T03:36:29.430Z,79.67
2018-10-12T03:38:56.642Z,79.98
2018-10-12T03:41:23.853Z,79.92
2018-10-12T03:43:51.041Z,79.92
2018-10-12T03:46:18.208Z,79.54
2018-10-12T03:48:45.417Z,79.98
2018-10-12T03:51:12.657Z,79.28
2018-10-12T03:53:40.006Z,79.67
2018-10-12T03:56:07.174Z,79.34
2018-10-12T03:58:34.371Z,79.26
2018-10-12T04:01:01.715Z,78.88
2018-10-12T04:03:28.933Z,79.42
2018-10-12T04:05:56.165Z,79.73
2018-10-12T04:08:23.307Z,79.51
2018-10-12T04:10:50.525Z,78.43
2018-10-12T04:13:17.789Z,78.95
2018-10-12T04:15:45.030Z,78.96
2018-10-12T04:18:12.330Z,79.71
2018-10-12T04:20:39.568Z,78.98
2018-10-12T04:23:06.697Z,80.10
2018-10-12T04:25:33.882Z,79.76
2018-10-12T04:28:01.088Z,79.86
2018-10-12T04:30:28.278Z,79.52
2018-10-12T04:32:55.478Z,79.34
2018-10-12T04:35:22.750Z,79.43
2018-10-12T04:37:50.035Z,79.60
2018-10-12T04:41:26.862Z,79.08
2018-10-12T04:43:55.613Z,80.05
2018-10-12T04:46:26.210Z,80.15
2018-10-12T04:48:53.510Z,79.04
2018-10-12T04:51:24.978Z,78.93
2018-10-12T04:53:52.394Z,79.51
2018-10-12T04:56:20.695Z,78.89
2018-10-12T04:58:47.923Z,79.70
2018-10-12T05:01:15.418Z,79.16
2018-10-12T05:03:42.606Z,80.44
2018-10-12T05:06:10.360Z,80.18
2018-10-12T05:08:37.775Z,79.89
2018-10-12T05:11:05.007Z,78.86
2018-10-12T05:13:33.218Z,78.68
2018-10-12T05:16:00.636Z,79.43
2018-10-12T05:18:28.014Z,78.93
2018-10-12T05:20:55.147Z,78.90
2018-10-12T05:23:22.428Z,79.01
2018-10-12T05:25:49.590Z,79.07
2018-10-12T05:28:16.948Z,78.59
2018-10-12T05:30:44.267Z,79.06
2018-10-12T05:33:11.589Z,78.81
2018-10-12T05:35:38.975Z,78.99
2018-10-12T05:38:06.313Z,78.68
2018-10-12T05:40:33.557Z,79.38
2018-10-12T05:43:01.295Z,78.84
2018-10-12T05:45:28.422Z,79.00
2018-10-12T05:50:04.475Z,79.46
2018-10-12T05:52:32.338Z,79.56
2018-10-12T05:55:01.117Z,79.87
2018-10-12T05:57:28.763Z,80.41
2018-10-12T05:59:55.978Z,80.07
2018-10-12T06:02:23.469Z,80.60
2018-10-12T06:04:50.619Z,80.35
2018-10-12T06:07:18.191Z,80.23
2018-10-12T06:09:45.702Z,80.68
2018-10-12T06:12:13.061Z,80.20
2018-10-12T06:14:40.232Z,81.30
2018-10-12T06:17:07.819Z,80.99
2018-10-12T06:19:35.419Z,80.81
2018-10-12T06:22:02.690Z,81.22
2018-10-12T06:24:30.806Z,80.82
2018-10-12T06:26:58.131Z,80.65
2018-10-12T06:29:25.354Z,80.77
2018-10-12T06:31:52.547Z,80.78
2018-10-12T06:34:19.789Z,80.96
2018-10-12T06:36:47.016Z,81.28
2018-10-12T06:39:15.228Z,80.95
2018-10-12T06:41:42.654Z,80.22
2018-10-12T06:44:09.773Z,80.87
2018-10-12T06:46:37.042Z,80.73
2018-10-12T06:49:04.137Z,80.35
2018-10-12T06:51:31.523Z,80.88
2018-10-12T06:53:59.234Z,80.58
2018-10-12T06:56:26.341Z,80.16
2018-10-12T06:58:53.485Z,80.99
2018-10-12T07:01:20.755Z,80.94
2018-10-12T07:03:48.123Z,80.68
2018-10-12T07:06:15.362Z,80.38
2018-10-12T07:08:42.862Z,80.49
2018-10-12T07:11:10.125Z,80.27
2018-10-12T07:13:37.360Z,80.74
2018-10-12T07:16:04.462Z,80.77
2018-10-12T07:18:31.687Z,80.58
2018-10-12T07:20:58.934Z,79.93
2018-10-12T07:23:26.274Z,80.04
2018-10-12T07:25:53.594Z,80.16
2018-10-12T07:28:20.855Z,79.03
2018-10-12T07:30:48.027Z,79.63
2018-10-12T07:33:15.319Z,79.43
2018-10-12T07:35:42.572Z,78.96
2018-10-12T07:38:09.820Z,77.99
2018-10-12T07:40:37.035Z,78.08
2018-10-12T07:43:04.221Z,77.94
2018-10-12T07:45:31.643Z,78.47
2018-10-12T07:47:58.806Z,77.62
2018-10-12T07:50:26.111Z,77.05
2018-10-12T07:52:53.397Z,77.49
2018-10-12T07:55:20.770Z,77.60
2018-10-12T07:57:48.027Z,76.17
2018-10-12T08:00:15.505Z,77.03
2018-10-12T08:02:42.822Z,76.85
2018-10-12T08:05:10.142Z,76.40
2018-10-12T08:07:37.311Z,76.33
2018-10-12T08:10:04.687Z,75.93
2018-10-12T08:12:33.266Z,76.20
2018-10-12T08:15:00.513Z,76.26
2018-10-12T08:17:27.675Z,75.88
2018-10-12T08:19:54.862Z,75.86
2018-10-12T08:22:22.134Z,75.60
2018-10-12T08:24:49.369Z,75.26
2018-10-12T08:27:16.621Z,75.23
2018-10-12T08:29:43.947Z,74.27
2018-10-12T08:32:11.553Z,74.81
2018-10-12T08:34:38.765Z,74.55
2018-10-12T08:37:06.178Z,74.47
2018-10-12T08:39:33.507Z,72.96
2018-10-12T08:42:00.850Z,72.98
2018-10-12T08:44:28.035Z,71.58
2018-10-12T08:46:55.303Z,71.74
2018-10-12T08:49:23.195Z,70.75
2018-10-12T08:51:50.597Z,68.85
2018-10-12T08:54:17.830Z,68.48
2018-10-12T08:56:45.184Z,67.50
2018-10-12T08:59:12.907Z,67.43
2018-10-12T09:01:40.112Z,67.37
2018-10-12T09:04:07.312Z,66.65
2018-10-12T09:06:35.950Z,66.51
2018-10-12T09:09:05.862Z,65.99
2018-10-12T09:11:33.711Z,65.85
2018-10-12T09:14:01.913Z,65.25
2018-10-12T09:16:29.217Z,64.44
2018-10-12T09:18:56.319Z,64.84
2018-10-12T09:21:23.894Z,64.01
2018-10-12T09:23:51.823Z,63.79
2018-10-12T09:26:19.206Z,63.90
2018-10-12T09:28:46.821Z,63.37
2018-10-12T09:31:14.364Z,62.08
2018-10-12T09:33:41.613Z,62.39
2018-10-12T09:36:09.179Z,61.40
2018-10-12T09:38:36.604Z,60.92
2018-10-12T09:41:03.995Z,61.49
2018-10-12T09:43:31.220Z,60.18
2018-10-12T09:45:58.549Z,60.66
2018-10-12T09:48:25.924Z,59.83
2018-10-12T09:50:53.137Z,59.54
2018-10-12T09:53:20.585Z,60.17
2018-10-12T09:55:47.775Z,58.85
2018-10-12T09:58:15.565Z,59.70
2018-10-12T10:00:48.478Z,59.22
2018-10-12T10:05:28.326Z,58.13
2018-10-12T10:07:55.959Z,58.29
2018-10-12T10:10:23.446Z,58.44
2018-10-12T10:12:50.986Z,57.42
2018-10-12T10:15:18.474Z,57.41
2018-10-12T10:17:45.889Z,56.65
2018-10-12T10:20:13.275Z,56.16
2018-10-12T10:22:40.468Z,55.99
2018-10-12T10:25:07.690Z,55.13
2018-10-12T10:27:34.794Z,56.24
2018-10-12T10:30:02.139Z,55.27
2018-10-12T10:32:29.462Z,55.39
2018-10-12T10:34:56.742Z,55.27
2018-10-12T10:37:23.906Z,54.87
2018-10-12T10:39:51.119Z,55.28
2018-10-12T10:42:18.466Z,55.16
2018-10-12T10:44:45.837Z,54.84
2018-10-12T10:47:12.993Z,55.39
2018-10-12T10:49:41.120Z,55.00
2018-10-12T10:52:08.555Z,54.05
2018-10-12T10:54:35.706Z,54.07
2018-10-12T10:57:04.820Z,54.18
2018-10-12T10:59:33.786Z,54.58
2018-10-12T11:02:01.127Z,54.66
2018-10-12T11:04:29.428Z,54.20
2018-10-12T11:06:56.917Z,53.89
2018-10-12T11:09:24.488Z,53.55
2018-10-12T11:11:51.713Z,53.27
2018-10-12T11:14:19.320Z,53.86
2018-10-12T11:16:46.602Z,53.26
2018-10-12T11:19:13.913Z,52.09
2018-10-12T11:21:41.421Z,52.32
2018-10-12T11:24:08.985Z,52.04
2018-10-12T11:26:36.754Z,51.55
2018-10-12T11:29:04.280Z,51.25
2018-10-12T11:31:31.565Z,51.58
2018-10-12T11:33:59.799Z,50.79
2018-10-12T11:36:27.178Z,50.49
2018-10-12T11:38:54.858Z,50.11
2018-10-12T11:41:22.350Z,50.55
2018-10-12T11:43:49.680Z,49.80
2018-10-12T11:46:16.877Z,49.63
2018-10-12T11:48:44.659Z,50.13
2018-10-12T11:51:11.847Z,49.49
2018-10-12T11:53:40.416Z,49.70
2018-10-12T11:56:07.765Z,49.42
2018-10-12T11:58:35.005Z,48.53
2018-10-12T12:01:02.337Z,48.42
2018-10-12T12:03:29.543Z,49.57
2018-10-12T12:05:56.762Z,48.73
2018-10-12T12:08:24.066Z,48.40
2018-10-12T12:10:51.388Z,49.24
2018-10-12T12:13:18.788Z,47.96
2018-10-12T12:15:46.138Z,48.41
2018-10-12T12:18:13.328Z,48.26
2018-10-12T12:20:41.071Z,47.70
2018-10-12T12:23:08.449Z,47.67
2018-10-12T12:25:35.657Z,47.07
2018-10-12T12:28:02.846Z,46.68
2018-10-12T12:30:30.102Z,46.26
2018-10-12T12:32:57.454Z,45.86
2018-10-12T12:35:25.409Z,46.20
2018-10-12T12:37:52.043Z,45.72
2018-10-12T12:40:19.340Z,45.14
2018-10-12T12:42:46.579Z,44.80
2018-10-12T12:45:14.031Z,45.23
2018-10-12T12:47:41.325Z,45.28
2018-10-12T12:50:08.502Z,44.59
2018-10-12T12:52:36.150Z,43.80
2018-10-12T12:55:03.632Z,44.54
2018-10-12T12:57:30.870Z,44.16
2018-10-12T12:59:58.097Z,44.20
2018-10-12T13:02:25.289Z,44.28
2018-10-12T13:04:52.519Z,42.84
2018-10-12T13:07:19.695Z,42.50
2018-10-12T13:09:47.159Z,42.04
2018-10-12T13:12:15.037Z,43.09
2018-10-12T13:14:42.538Z,41.98
2018-10-12T13:17:09.711Z,42.59
2018-10-12T13:19:37.839Z,41.81
2018-10-12T13:22:06.119Z,42.67
2018-10-12T13:24:33.385Z,41.22
2018-10-12T13:27:00.921Z,41.93
2018-10-12T13:29:28.467Z,40.85
2018-10-12T13:31:55.749Z,41.29
2018-10-12T13:34:22.925Z,41.63
2018-10-12T13:36:50.288Z,40.68
2018-10-12T13:39:17.511Z,40.18
2018-10-12T13:41:45.873Z,40.12
2018-10-12T13:44:14.013Z,40.22
2018-10-12T13:46:41.340Z,40.17
2018-10-12T13:49:09.562Z,40.41
2018-10-12T13:51:37.436Z,41.02
2018-10-12T13:54:05.238Z,40.32
2018-10-12T13:56:32.847Z,40.23
2018-10-12T13:59:00.341Z,38.96
2018-10-12T14:01:27.558Z,40.33
2018-10-12T14:03:54.972Z,39.56
2018-10-12T14:06:22.406Z,39.04
2018-10-12T14:08:49.682Z,38.68
2018-10-12T14:11:17.079Z,38.92
2018-10-12T14:13:44.455Z,38.44
2018-10-12T14:16:11.715Z,38.65
2018-10-12T14:18:40.202Z,38.25
2018-10-12T14:21:08.924Z,39.38
2018-10-12T14:23:37.322Z,37.26
2018-10-12T14:26:05.208Z,38.09
2018-10-12T14:28:33.221Z,38.39
2018-10-12T14:31:00.547Z,37.93
2018-10-12T14:33:27.786Z,38.40
2018-10-12T14:35:55.015Z,39.09
2018-10-12T14:38:22.205Z,39.60
2018-10-12T14:40:49.435Z,39.67
2018-10-12T14:43:16.660Z,39.64
2018-10-12T14:45:43.765Z,40.10
2018-10-12T14:48:11.154Z,41.17
2018-10-12T14:50:38.463Z,41.52
2018-10-12T14:53:05.865Z,42.06
2018-10-12T14:55:33.019Z,41.21
2018-10-12T14:58:01.426Z,41.72
2018-10-12T15:00:28.613Z,42.47
2018-10-12T15:02:56.016Z,42.47
2018-10-12T15:05:23.190Z,43.75
2018-10-12T15:07:50.508Z,43.66
2018-10-12T15:10:17.698Z,42.94
2018-10-12T15:12:44.877Z,43.43
2018-10-12T15:15:17.304Z,44.21
2018-10-12T15:17:44.625Z,43.74
2018-10-12T15:20:12.609Z,45.00
2018-10-12T15:22:40.383Z,45.00
2018-10-12T15:25:07.944Z,45.08
2018-10-12T15:27:35.237Z,44.81
2018-10-12T15:30:02.371Z,45.53
2018-10-12T15:32:29.590Z,44.96
2018-10-12T15:34:56.881Z,45.51
2018-10-12T15:37:24.159Z,46.26
2018-10-12T15:39:51.278Z,46.28
2018-10-12T15:42:18.590Z,45.56
2018-10-12T15:44:45.787Z,47.25
2018-10-12T15:47:13.205Z,48.10
2018-10-12T15:49:40.428Z,47.83
2018-10-12T15:52:07.610Z,48.03
2018-10-12T15:54:35.314Z,47.95
2018-10-12T15:57:02.786Z,48.04
2018-10-12T15:59:29.919Z,49.23
2018-10-12T16:01:57.184Z,50.12
2018-10-12T16:04:24.817Z,49.67
2018-10-12T16:06:52.050Z,50.48
2018-10-12T16:09:19.372Z,50.35
2018-10-12T16:11:46.606Z,50.69
2018-10-12T16:14:13.921Z,50.99
2018-10-12T16:16:41.446Z,51.37
2018-10-12T16:19:08.641Z,52.09
2018-10-12T16:21:35.798Z,52.26
2018-10-12T16:24:10.485Z,52.61
2018-10-12T16:26:37.662Z,53.81
2018-10-12T16:29:05.224Z,53.79
2018-10-12T16:31:32.346Z,54.81
2018-10-12T16:33:59.548Z,55.92
2018-10-12T16:36:26.737Z,55.38
2018-10-12T16:38:54.356Z,56.55
2018-10-12T16:41:21.663Z,56.68
2018-10-12T16:43:48.939Z,57.05
2018-10-12T16:46:16.045Z,56.26
2018-10-12T16:48:43.247Z,56.37
2018-10-12T16:51:10.412Z,56.55
2018-10-12T16:53:38.693Z,55.91
2018-10-12T16:56:05.920Z,55.60
2018-10-12T16:58:33.192Z,55.06
2018-10-12T17:01:01.000Z,55.86
2018-10-12T17:03:28.184Z,55.76
2018-10-12T17:05:56.078Z,55.72
2018-10-12T17:08:23.349Z,56.56
2018-10-12T17:10:52.222Z,56.96
2018-10-12T17:13:20.105Z,57.35
2018-10-12T17:18:23.983Z,57.25
2018-10-12T17:20:51.473Z,57.41
2018-10-12T17:23:19.038Z,57.45
2018-10-12T17:25:46.512Z,58.01
2018-10-12T17:28:13.878Z,58.01
2018-10-12T17:30:41.181Z,57.63
2018-10-12T17:33:08.496Z,58.07
2018-10-12T17:35:35.937Z,58.75
2018-10-12T17:40:31.006Z,58.33
2018-10-12T17:43:02.456Z,58.85
2018-10-12T17:45:30.091Z,58.10
2018-10-12T17:47:57.539Z,58.14
2018-10-12T17:50:24.876Z,58.82
2018-10-12T17:52:52.139Z,58.29
2018-10-12T17:55:19.504Z,58.71
2018-10-12T17:57:47.010Z,59.36
2018-10-12T18:00:14.430Z,58.49
2018-10-12T18:02:41.665Z,59.20
2018-10-12T18:05:09.039Z,59.02
2018-10-12T18:07:36.412Z,59.04
2018-10-12T18:10:04.215Z,59.03
2018-10-12T18:12:32.006Z,60.06
2018-10-12T18:15:03.007Z,58.40
2018-10-12T18:17:30.910Z,60.37
2018-10-12T18:19:58.803Z,60.22
2018-10-12T18:22:26.169Z,59.69
2018-10-12T18:24:53.366Z,60.02
2018-10-12T18:27:21.553Z,60.90
2018-10-12T18:29:52.096Z,60.35
2018-10-12T18:32:19.306Z,61.57
2018-10-12T18:34:46.469Z,60.60
2018-10-12T18:37:14.472Z,61.26
2018-10-12T18:39:41.828Z,61.59
2018-10-12T18:42:12.405Z,61.51
2018-10-12T18:44:39.968Z,61.88
2018-10-12T18:47:07.445Z,61.56
2018-10-12T18:49:35.395Z,62.65
2018-10-12T18:52:03.781Z,61.77
2018-10-12T18:54:31.718Z,62.31
2018-10-12T18:56:59.310Z,62.86
2018-10-12T18:59:26.731Z,62.78
2018-10-12T19:01:54.066Z,62.44
2018-10-12T19:04:21.766Z,62.30
2018-10-12T19:06:49.391Z,63.43
2018-10-12T19:09:16.620Z,63.30
2018-10-12T19:11:43.875Z,62.92
2018-10-12T19:14:11.434Z,63.38
2018-10-12T19:16:39.312Z,63.93
2018-10-12T19:19:06.931Z,63.26
2018-10-12T19:21:34.240Z,63.83
2018-10-12T19:24:01.547Z,64.57
2018-10-12T19:26:28.899Z,63.71
2018-10-12T19:28:56.354Z,63.05
2018-10-12T19:31:24.523Z,60.84
2018-10-12T19:33:52.111Z,62.11
2018-10-12T19:36:19.576Z,62.93
2018-10-12T19:38:46.900Z,64.65
2018-10-12T19:41:14.435Z,65.24
2018-10-12T19:43:42.321Z,65.46
2018-10-12T19:46:10.202Z,66.66
2018-10-12T19:48:37.927Z,66.91
2018-10-12T19:51:05.218Z,66.87
2018-10-12T19:53:32.432Z,66.71
2018-10-12T19:55:59.630Z,66.26
2018-10-12T19:58:26.752Z,66.74
2018-10-12T20:00:54.420Z,68.01
2018-10-12T20:03:21.765Z,67.89
2018-10-12T20:05:49.243Z,67.26
2018-10-12T20:08:16.671Z,67.50
2018-10-12T20:10:43.900Z,68.10
2018-10-12T20:13:11.058Z,67.97
2018-10-12T20:15:38.515Z,67.84
2018-10-12T20:18:05.877Z,68.47
2018-10-12T20:20:33.127Z,68.85
2018-10-12T20:23:00.307Z,69.16
2018-10-12T20:25:27.718Z,68.90
2018-10-12T20:27:54.900Z,69.33
2018-10-12T20:30:22.090Z,69.15
2018-10-12T20:32:49.429Z,69.17
2018-10-12T20:35:16.754Z,68.96
2018-10-12T20:37:43.996Z,68.75
2018-10-12T20:40:11.288Z,69.31
2018-10-12T20:42:38.489Z,69.55
2018-10-12T20:45:05.745Z,69.67
2018-10-12T20:47:33.017Z,69.96
2018-10-12T20:50:00.265Z,69.62
2018-10-12T20:52:27.785Z,69.08
2018-10-12T20:54:55.102Z,69.25
2018-10-12T20:57:22.410Z,68.92
2018-10-12T20:59:49.635Z,69.33
2018-10-12T21:02:16.831Z,69.23
2018-10-12T21:04:44.042Z,69.87
2018-10-12T21:07:11.442Z,69.88
2018-10-12T21:09:38.665Z,69.79
2018-10-12T21:12:05.845Z,69.83
2018-10-12T21:14:33.098Z,69.93
2018-10-12T21:17:00.279Z,70.01
2018-10-12T21:19:27.495Z,70.03
2018-10-12T21:21:54.672Z,70.32
2018-10-12T21:24:21.978Z,71.35
2018-10-12T21:26:49.353Z,71.22
2018-10-12T21:29:16.588Z,71.19
2018-10-12T21:31:43.874Z,70.70
2018-10-12T21:34:11.153Z,70.55
2018-10-12T21:36:38.424Z,70.33
2018-10-12T21:39:06.126Z,70.46
2018-10-12T21:41:33.378Z,70.35
2018-10-12T21:44:00.584Z,70.67
2018-10-12T21:46:27.872Z,70.82
2018-10-12T21:48:55.143Z,71.90
2018-10-12T21:51:22.391Z,71.84
2018-10-12T21:53:49.513Z,71.95
2018-10-12T21:56:16.748Z,71.52
2018-10-12T21:58:45.952Z,71.86
2018-10-12T22:01:13.675Z,71.47
2018-10-12T22:03:40.859Z,72.22
2018-10-12T22:06:08.052Z,72.05
2018-10-12T22:08:40.787Z,72.12
2018-10-12T22:11:08.013Z,72.09
2018-10-12T22:13:36.010Z,71.89
2018-10-12T22:20:57.909Z,72.23
2018-10-12T22:23:25.116Z,73.20
2018-10-12T22:25:52.410Z,72.56
2018-10-12T22:28:20.031Z,73.98
2018-10-12T22:30:47.415Z,73.22
2018-10-12T22:33:14.628Z,73.39
2018-10-12T22:35:41.843Z,73.83
2018-10-12T22:38:09.091Z,73.35
2018-10-12T22:40:36.435Z,73.51
2018-10-12T22:43:03.646Z,73.33
2018-10-12T22:45:31.010Z,73.78
2018-10-12T22:47:58.275Z,73.73
2018-10-12T22:50:25.459Z,73.07
2018-10-12T22:52:52.841Z,73.39
2018-10-12T22:55:20.115Z,72.78
2018-10-12T22:57:47.423Z,73.33
2018-10-12T23:00:14.926Z,73.33
2018-10-12T23:02:42.959Z,73.20
2018-10-12T23:05:10.188Z,73.02
2018-10-12T23:07:37.520Z,72.71
2018-10-12T23:10:05.294Z,73.28
2018-10-12T23:12:33.140Z,72.87
2018-10-12T23:15:00.263Z,73.12
2018-10-12T23:17:27.603Z,73.76
2018-10-12T23:19:54.793Z,74.97
2018-10-12T23:22:21.965Z,74.79
2018-10-12T23:24:49.442Z,74.70
2018-10-12T23:27:16.751Z,75.18
2018-10-12T23:29:43.989Z,74.74
2018-10-12T23:32:11.150Z,74.90
2018-10-12T23:34:38.309Z,75.44
2018-10-12T23:37:05.776Z,75.33
2018-10-12T23:39:32.937Z,75.21
2018-10-12T23:42:00.106Z,75.76
2018-10-12T23:44:27.367Z,74.50
2018-10-12T23:46:54.588Z,74.39
2018-10-12T23:49:21.802Z,74.37
2018-10-12T23:51:49.066Z,74.25
2018-10-12T23:54:16.280Z,74.76
2018-10-12T23:56:43.474Z,74.76
2018-10-12T23:59:10.685Z,74.57
